メインページ
METAR-TAF:

METAR-TAF

空港 :

Fort St. John, ブリティッシュコロンビア州, カナダ

緯度: 56-14N, 経度: 120-44W, 海抜: 695m

現時点の気象観測

当レポートは1時間8分前の17:00(UTC)に作成
南西の風 21kt
気温 7°C
湿度 76%
気圧 994 hPa
視程: 96.5km
高度18000ftの千切れ雲あり
高度24000ftの千切れ雲あり

METAR: CYXJ 171700Z 22021KT 60SM BKN180 BKN240 07/03 A2934 RMK AC5CI1 CI TR SLP959 DENSITY ALT 2600FT

時間: 11:08 (18:08 UTC)

予報

当レポートは5時間30分前の12:38(UTC)に作成
予報は17日の 13時(UTC)から 18日の 01時(UTC)まで有効
南西の風 20kt、最大30ktの突風を伴う
視程: 10km
高度12000ftの雲はほとんどない
高度22000ftの雲は散在している

TAF: CYXJ 171238Z 1713/1801 23020G30KT P6SM FEW120 SCT220 RMK NXT FCST BY 171900Z

4,000以上の空港の気象観測と天気予報(METAR報とTAF報)

利用可能な観測所は地図上に黄色い丸と赤い丸で示す。

丸の上にカーソルを重ねると観測所名を参照できる。

次にクリックすると気象観測と天気予報を参照できる。

マップの切り替え:黒色「×」印の緑ボタンをクリックして拡大、「-」印の緑ボタンをクリックして縮小、緑色の三角印をクリックして隣りの地図に切り替え


METAR-TAF: